Waterloo, Iowa
Current Conditions -  °F | °C
As of 7:54 AM on Friday 19 Dec 2014 (Local Time) from KALO Reporting Station
Overcast Overcast  
Wind Chill: 19°   Ceiling: 3500
Heat Index: 25°   Visibility: 7mi
Dew Point: 20°   Wind: 5mph
Humidity: 81%   Direction: 130°SE
Pressure: 30.28"   Gusts: NA
Location:  42.49°N, 92.34°W
Report Text: KALO 191354Z 13004KT 7SM OVC035 M04/M07 A3028 RMK AO2 SLP266 T10391067
Loading
Personal Weather Stations






























Interactive Weather Map New forecast layout! Learn more

10-Day Weather Forecast

Advertisements
Track Severe Weather on mobile